Sao Jorge — CSIA — position and weather

sailwx.info

Track history (hours):
 
Tides and Currents Weather Stations Pressure Air Temp Water Temp Dewpoint Dewpoint Depression Visibility Wind Speed Wind Dir Waves Ship Positions

Sao Jorge

Last reported at 2015-Jul-31 09:03 UTC. Time now 2015-Jul-31 21:27 UTC.
Position N 38°41' W 009°09'.

Length 59 m; draft 24.8 m.

Type: Passenger vessel. MMSI: 263701790.

Date/timePositionNaut miles runAvg speedWind from/ knotsBaromVisibWave heightAir tempDewpointWater temp
2015-Jul-31 09:03N 38°41' W 009°09'0 0.0
2015-Jul-31 08:33N 38°41' W 009°09'0 0.0
2015-Jul-31 07:33N 38°41' W 009°09'1 0.6
2015-Jul-31 06:34N 38°42' W 009°09'1 0.0
2015-Jul-30 19:08N 38°41' W 009°09'0 0.0
2015-Jul-30 18:33N 38°41' W 009°09'0 0.0
2015-Jul-30 17:33N 38°41' W 009°09'1 0.7
2015-Jul-30 16:33N 38°42' W 009°09'1 0.7
2015-Jul-30 15:33N 38°41' W 009°09'0 0.0
2015-Jul-30 09:33N 38°41' W 009°09'0 0.0
2015-Jul-30 08:33N 38°41' W 009°09'0 0.0
2015-Jul-30 07:33N 38°41' W 009°09'1 0.7
2015-Jul-30 06:33N 38°42' W 009°09'1 0.1
2015-Jul-29 19:09N 38°41' W 009°09'0 0.0
2015-Jul-29 18:33N 38°41' W 009°09'0 0.2
2015-Jul-29 17:33N 38°41' W 009°09'1 0.5
2015-Jul-29 16:33N 38°42' W 009°09'1 0.7
2015-Jul-29 15:33N 38°41' W 009°09'0 0.0
2015-Jul-29 09:05N 38°41' W 009°09'0 0.0
2015-Jul-29 08:33N 38°41' W 009°09'0 0.0
2015-Jul-29 07:33N 38°41' W 009°09'1 0.8
2015-Jul-29 06:33N 38°42' W 009°09'1 0.1
2015-Jul-28 19:13N 38°41' W 009°09'0 0.0
2015-Jul-28 18:33N 38°41' W 009°09'0 0.1
2015-Jul-28 17:33N 38°41' W 009°09'1 0.6
2015-Jul-28 16:33N 38°42' W 009°09'1 0.7
2015-Jul-28 15:33N 38°41' W 009°09'0 0.0
2015-Jul-28 14:33N 38°41' W 009°09'0 0.0
2015-Jul-28 13:33N 38°41' W 009°09'0 0.0
2015-Jul-28 11:33N 38°41' W 009°09'0 0.0
2015-Jul-28 10:33N 38°41' W 009°09'0 0.0
2015-Jul-28 09:09N 38°41' W 009°09'0 0.0
2015-Jul-28 08:33N 38°41' W 009°09'  
2015-Jul-21 16:33N 38°41' W 009°09'2 2.4
2015-Jul-21 15:33N 38°42' W 009°12'0 0.2
2015-Jul-21 14:33N 38°42' W 009°12'3 3.1
2015-Jul-21 13:33N 38°42' W 009°08'1 1.0
2015-Jul-21 12:33N 38°41' W 009°09'3 2.6
2015-Jul-21 11:33N 38°41' W 009°12'4 3.5
2015-Jul-21 10:33N 38°42' W 009°08'0 0.2
2015-Jul-21 09:33N 38°42' W 009°08'  
Track history (hours):
 
Tides and Currents Weather Stations Pressure Air Temp Water Temp Dewpoint Dewpoint Depression Visibility Wind Speed Wind Dir Waves Ship Positions

Sao Jorge

Last reported at 2015-Jul-31 09:03 UTC. Time now 2015-Jul-31 21:27 UTC.
Position N 38°41' W 009°09'.

Length 59 m; draft 24.8 m.

Type: Passenger vessel. MMSI: 263701790.

Date/timePositionNaut miles runAvg speedWind from/ knotsBaromVisibWave heightAir tempDewpointWater temp
2015-Jul-31 09:03N 38°41' W 009°09'0 0.0
2015-Jul-31 08:33N 38°41' W 009°09'0 0.0
2015-Jul-31 07:33N 38°41' W 009°09'1 0.6
2015-Jul-31 06:34N 38°42' W 009°09'1 0.0
2015-Jul-30 19:08N 38°41' W 009°09'0 0.0
2015-Jul-30 18:33N 38°41' W 009°09'0 0.0
2015-Jul-30 17:33N 38°41' W 009°09'1 0.7
2015-Jul-30 16:33N 38°42' W 009°09'1 0.7
2015-Jul-30 15:33N 38°41' W 009°09'0 0.0
2015-Jul-30 09:33N 38°41' W 009°09'0 0.0
2015-Jul-30 08:33N 38°41' W 009°09'0 0.0
2015-Jul-30 07:33N 38°41' W 009°09'1 0.7
2015-Jul-30 06:33N 38°42' W 009°09'1 0.1
2015-Jul-29 19:09N 38°41' W 009°09'0 0.0
2015-Jul-29 18:33N 38°41' W 009°09'0 0.2
2015-Jul-29 17:33N 38°41' W 009°09'1 0.5
2015-Jul-29 16:33N 38°42' W 009°09'1 0.7
2015-Jul-29 15:33N 38°41' W 009°09'0 0.0
2015-Jul-29 09:05N 38°41' W 009°09'0 0.0
2015-Jul-29 08:33N 38°41' W 009°09'0 0.0
2015-Jul-29 07:33N 38°41' W 009°09'1 0.8
2015-Jul-29 06:33N 38°42' W 009°09'1 0.1
2015-Jul-28 19:13N 38°41' W 009°09'0 0.0
2015-Jul-28 18:33N 38°41' W 009°09'0 0.1
2015-Jul-28 17:33N 38°41' W 009°09'1 0.6
2015-Jul-28 16:33N 38°42' W 009°09'1 0.7
2015-Jul-28 15:33N 38°41' W 009°09'0 0.0
2015-Jul-28 14:33N 38°41' W 009°09'0 0.0
2015-Jul-28 13:33N 38°41' W 009°09'0 0.0
2015-Jul-28 11:33N 38°41' W 009°09'0 0.0
2015-Jul-28 10:33N 38°41' W 009°09'0 0.0
2015-Jul-28 09:09N 38°41' W 009°09'0 0.0
2015-Jul-28 08:33N 38°41' W 009°09'  
2015-Jul-21 16:33N 38°41' W 009°09'2 2.4
2015-Jul-21 15:33N 38°42' W 009°12'0 0.2
2015-Jul-21 14:33N 38°42' W 009°12'3 3.1
2015-Jul-21 13:33N 38°42' W 009°08'1 1.0
2015-Jul-21 12:33N 38°41' W 009°09'3 2.6
2015-Jul-21 11:33N 38°41' W 009°12'4 3.5
2015-Jul-21 10:33N 38°42' W 009°08'0 0.2
2015-Jul-21 09:33N 38°42' W 009°08'  

Dump ship's entire track history